Time;durP1;ratioP1;P1;durP2;ratioP2;P2;SDS_P1;SDS_P2;PMS_P1;PMS_P2;Temp;Humidity;BMP_temperature;BMP_pressure;BME280_temperature;BME280_humidity;BME280_pressure;Samples;Min_cycle;Max_cycle;Signal;HPM_P1;HPM_P2
2023/06/19 00:01:29;;;;;;;3.75;3.30;;;25.90;85.50;;;;;;6185414;23;20077;-84
2023/06/19 00:03:55;;;;;;;6.88;3.65;;;25.80;85.30;;;;;;6185307;23;20004;-84
2023/06/19 00:06:21;;;;;;;7.10;3.17;;;25.80;85.40;;;;;;6184107;23;20005;-83
2023/06/19 00:08:46;;;;;;;4.13;3.45;;;25.80;85.60;;;;;;6184048;23;19997;-83
2023/06/19 00:11:12;;;;;;;5.07;3.28;;;25.80;85.60;;;;;;6183718;23;20540;-84
2023/06/19 00:13:38;;;;;;;4.47;3.17;;;25.80;85.70;;;;;;6184314;23;20035;-84
2023/06/19 00:16:04;;;;;;;4.18;2.88;;;25.80;85.80;;;;;;6184044;23;20005;-84
2023/06/19 00:18:30;;;;;;;5.07;3.28;;;25.80;85.90;;;;;;6183896;23;20036;-84
2023/06/19 00:20:56;;;;;;;5.65;3.17;;;25.80;86.00;;;;;;6183705;23;20015;-84
2023/06/19 00:23:25;;;;;;;4.93;3.05;;;25.70;86.00;;;;;;6183927;23;20366;-84
2023/06/19 00:25:50;;;;;;;5.50;3.13;;;25.70;86.10;;;;;;6183169;23;20009;-84
2023/06/19 00:28:19;;;;;;;3.70;3.33;;;25.70;86.10;;;;;;6183296;23;20131;-84
2023/06/19 00:30:45;;;;;;;6.03;3.70;;;25.70;87.00;;;;;;6183612;23;20030;-84
2023/06/19 00:33:11;;;;;;;3.70;3.15;;;25.70;86.60;;;;;;6156733;23;20095;-84
2023/06/19 00:35:36;;;;;;;5.35;3.53;;;25.70;86.80;;;;;;6182248;23;20009;-83
2023/06/19 00:38:02;;;;;;;4.85;3.00;;;25.60;86.90;;;;;;6183391;23;20011;-83
2023/06/19 00:40:31;;;;;;;4.15;3.00;;;25.60;87.20;;;;;;6183940;23;20040;-84
2023/06/19 00:42:57;;;;;;;3.45;3.00;;;25.60;87.20;;;;;;6183330;23;20035;-85
2023/06/19 00:45:24;;;;;;;6.85;3.22;;;25.60;87.20;;;;;;6182315;23;19998;-83
2023/06/19 00:47:51;;;;;;;4.25;3.15;;;25.60;87.20;;;;;;6182823;23;20429;-83
2023/06/19 00:50:16;;;;;;;5.45;2.92;;;25.60;87.80;;;;;;6182940;23;20360;-84
2023/06/19 00:52:43;;;;;;;5.03;3.22;;;25.70;87.40;;;;;;6182405;23;20001;-83
2023/06/19 00:55:09;;;;;;;5.95;3.40;;;25.60;87.40;;;;;;6183777;23;20021;-83
2023/06/19 00:57:35;;;;;;;5.50;3.60;;;25.60;87.50;;;;;;6182916;23;20009;-83
2023/06/19 01:00:05;;;;;;;3.75;3.03;;;25.60;87.60;;;;;;6182817;23;20396;-83
2023/06/19 01:02:30;;;;;;;4.88;3.75;;;25.60;87.70;;;;;;6183042;23;20005;-83
2023/06/19 01:04:56;;;;;;;5.40;4.07;;;25.60;87.60;;;;;;6183302;23;20108;-83
2023/06/19 01:08:04;;;;;;;7.53;3.88;;;25.50;87.50;;;;;;6183318;23;20081;-83
2023/06/19 01:10:36;;;;;;;5.07;3.75;;;25.50;87.50;;;;;;6183395;23;20028;-83
2023/06/19 01:13:04;;;;;;;4.88;4.25;;;25.50;87.50;;;;;;6183296;23;20001;-83
2023/06/19 01:15:30;;;;;;;4.93;3.88;;;25.40;87.60;;;;;;6183119;23;20005;-83
2023/06/19 01:17:58;;;;;;;7.78;3.95;;;25.40;87.60;;;;;;6183322;23;20012;-83
2023/06/19 01:20:25;;;;;;;4.50;4.00;;;25.30;87.70;;;;;;6156574;23;20659;-84
2023/06/19 01:22:51;;;;;;;5.15;3.80;;;25.40;87.90;;;;;;6182780;23;20009;-83
2023/06/19 01:25:17;;;;;;;4.72;4.07;;;25.30;87.90;;;;;;6183573;23;20487;-83
2023/06/19 01:27:43;;;;;;;5.32;4.45;;;25.30;87.80;;;;;;6182605;23;20021;-84
2023/06/19 01:30:11;;;;;;;6.78;4.63;;;25.30;87.80;;;;;;6182920;23;20001;-85
2023/06/19 01:32:43;;;;;;;5.53;4.13;;;25.30;87.90;;;;;;6183413;23;20039;-83
2023/06/19 01:35:11;;;;;;;5.25;4.72;;;25.30;88.10;;;;;;6182720;23;20005;-83
2023/06/19 01:37:39;;;;;;;5.47;4.30;;;25.20;88.10;;;;;;6183784;23;20001;-83
2023/06/19 01:40:09;;;;;;;5.22;4.00;;;25.20;88.20;;;;;;6185528;23;20438;-83
2023/06/19 01:42:37;;;;;;;5.03;4.53;;;25.10;88.30;;;;;;6184466;23;20052;-83
2023/06/19 01:45:04;;;;;;;5.60;4.63;;;25.10;88.50;;;;;;6184834;23;19997;-84
2023/06/19 01:47:30;;;;;;;5.60;4.15;;;25.10;88.60;;;;;;6184778;23;20009;-84
2023/06/19 01:49:55;;;;;;;6.10;4.22;;;25.10;88.60;;;;;;6158395;23;20494;-83
2023/06/19 01:52:21;;;;;;;5.63;4.35;;;25.10;88.60;;;;;;6158465;23;20446;-83
2023/06/19 01:54:47;;;;;;;4.85;4.07;;;25.10;88.70;;;;;;6185036;23;20041;-82
2023/06/19 01:57:13;;;;;;;5.35;4.00;;;25.10;88.70;;;;;;6184714;23;20011;-82
2023/06/19 01:59:38;;;;;;;6.68;4.35;;;25.10;88.80;;;;;;6184177;23;20008;-83
2023/06/19 02:02:06;;;;;;;7.18;4.38;;;25.10;88.70;;;;;;6184539;23;20009;-83
2023/06/19 02:04:32;;;;;;;5.18;3.92;;;25.10;88.70;;;;;;6158124;23;20027;-83
2023/06/19 02:06:58;;;;;;;5.38;4.30;;;25.20;88.80;;;;;;6184990;23;20436;-83
2023/06/19 02:09:24;;;;;;;4.93;3.80;;;25.10;88.70;;;;;;6184839;23;20068;-83
2023/06/19 02:11:49;;;;;;;5.68;4.03;;;25.20;88.80;;;;;;6184384;23;20001;-85
2023/06/19 02:14:15;;;;;;;5.55;4.15;;;25.20;88.70;;;;;;6183815;23;20415;-83
2023/06/19 02:16:43;;;;;;;9.15;4.63;;;25.10;88.50;;;;;;6183823;23;20011;-83
2023/06/19 02:19:12;;;;;;;4.72;4.13;;;25.10;88.50;;;;;;6184738;23;20304;-83
2023/06/19 02:21:38;;;;;;;5.68;4.78;;;25.10;88.30;;;;;;6184019;23;20003;-83
2023/06/19 02:24:04;;;;;;;4.93;4.32;;;24.90;88.20;;;;;;6184555;23;20001;-84
2023/06/19 02:26:30;;;;;;;4.63;3.97;;;24.80;88.10;;;;;;6184954;23;20008;-83
2023/06/19 02:28:56;;;;;;;5.03;4.28;;;24.80;88.30;;;;;;6184206;23;20380;-84
2023/06/19 02:31:22;;;;;;;6.50;4.45;;;24.80;88.40;;;;;;6183672;23;20415;-84
2023/06/19 02:33:49;;;;;;;5.28;4.40;;;24.80;88.40;;;;;;6184093;23;20013;-84
2023/06/19 02:36:19;;;;;;;5.90;4.00;;;24.70;88.40;;;;;;6183345;23;20076;-83
2023/06/19 02:38:46;;;;;;;6.22;4.55;;;24.70;88.50;;;;;;6184112;23;20001;-84
2023/06/19 02:41:12;;;;;;;7.20;5.00;;;24.60;88.40;;;;;;6184834;23;20071;-83
2023/06/19 02:43:40;;;;;;;7.25;4.82;;;24.60;88.50;;;;;;6184448;23;20012;-83
2023/06/19 02:46:05;;;;;;;5.28;4.28;;;24.60;88.40;;;;;;6184303;23;20088;-83
2023/06/19 02:48:31;;;;;;;5.43;4.18;;;24.50;88.50;;;;;;6183760;23;20404;-83
2023/06/19 02:50:57;;;;;;;5.90;4.55;;;24.50;88.50;;;;;;6184045;23;20008;-83
2023/06/19 02:53:23;;;;;;;5.63;5.00;;;24.50;88.40;;;;;;6183747;23;20088;-83
2023/06/19 02:55:48;;;;;;;8.02;4.97;;;24.40;88.60;;;;;;6184041;23;20012;-83
2023/06/19 02:58:14;;;;;;;6.30;5.28;;;24.40;88.50;;;;;;6158354;23;20008;-83
2023/06/19 03:00:40;;;;;;;5.60;4.82;;;24.30;88.50;;;;;;6184402;23;20005;-83
2023/06/19 03:03:05;;;;;;;6.95;5.07;;;24.30;88.60;;;;;;6157420;23;20058;-83
2023/06/19 03:05:31;;;;;;;6.85;5.57;;;24.20;88.70;;;;;;6183757;23;20005;-83
2023/06/19 03:07:57;;;;;;;7.68;5.75;;;24.20;88.80;;;;;;6182653;23;20001;-83
2023/06/19 03:10:22;;;;;;;6.18;5.50;;;24.20;88.70;;;;;;6183872;23;20001;-82
2023/06/19 03:12:48;;;;;;;7.05;5.80;;;24.10;88.50;;;;;;6184974;23;20016;-83
2023/06/19 03:15:14;;;;;;;7.68;6.20;;;24.10;88.50;;;;;;6184474;23;20047;-82
2023/06/19 03:17:39;;;;;;;9.20;7.18;;;24.10;88.50;;;;;;6184057;23;20016;-83
2023/06/19 03:20:06;;;;;;;8.25;6.88;;;24.10;88.60;;;;;;6184342;23;20015;-83
2023/06/19 03:22:31;;;;;;;10.32;6.90;;;24.00;88.40;;;;;;6184072;23;20423;-83
2023/06/19 03:24:57;;;;;;;8.63;6.18;;;24.00;88.50;;;;;;6184169;23;20005;-83
2023/06/19 03:27:24;;;;;;;9.20;6.30;;;24.00;88.50;;;;;;6184580;23;19997;-84
2023/06/19 03:29:50;;;;;;;7.97;6.15;;;24.00;88.50;;;;;;6184303;23;19993;-84
2023/06/19 03:32:16;;;;;;;10.38;6.43;;;23.90;88.50;;;;;;6183861;23;20020;-84
2023/06/19 03:34:42;;;;;;;10.20;6.88;;;23.90;88.60;;;;;;6183710;23;20001;-84
2023/06/19 03:37:08;;;;;;;7.40;6.15;;;23.90;88.50;;;;;;6184257;23;20001;-84
2023/06/19 03:39:34;;;;;;;7.60;6.10;;;23.90;88.50;;;;;;6183821;23;20117;-83
2023/06/19 03:41:59;;;;;;;8.63;6.57;;;23.90;88.50;;;;;;6183791;23;20008;-84
2023/06/19 03:44:25;;;;;;;9.32;7.28;;;24.00;88.30;;;;;;6183965;23;20084;-83
2023/06/19 03:46:51;;;;;;;7.50;6.72;;;24.00;88.20;;;;;;6183808;23;20004;-83
2023/06/19 03:49:17;;;;;;;8.45;6.90;;;24.10;88.10;;;;;;6183988;23;20012;-83
2023/06/19 03:51:43;;;;;;;8.35;6.65;;;24.10;87.80;;;;;;6157120;23;20084;-83
2023/06/19 03:54:09;;;;;;;8.27;7.28;;;24.10;87.30;;;;;;6183645;23;20051;-83
2023/06/19 03:56:34;;;;;;;9.63;7.68;;;24.20;87.00;;;;;;6183870;23;20005;-83
2023/06/19 03:59:00;;;;;;;8.73;7.28;;;24.20;86.70;;;;;;6183119;23;20036;-83
2023/06/19 04:01:26;;;;;;;10.73;8.20;;;24.20;86.50;;;;;;6183882;23;20002;-83
2023/06/19 04:03:52;;;;;;;9.32;7.80;;;24.20;86.30;;;;;;6183635;23;20012;-84
2023/06/19 04:06:17;;;;;;;13.23;8.50;;;24.20;86.20;;;;;;6183117;23;20005;-83
2023/06/19 04:08:43;;;;;;;9.73;8.55;;;24.10;86.10;;;;;;6183811;23;20277;-84
2023/06/19 04:11:09;;;;;;;9.73;7.95;;;24.10;86.00;;;;;;6183872;23;20004;-84
2023/06/19 04:13:34;;;;;;;9.50;7.90;;;24.10;86.00;;;;;;6182973;23;20008;-83
2023/06/19 04:16:00;;;;;;;11.52;8.63;;;24.00;86.00;;;;;;6183216;23;20025;-84
2023/06/19 04:18:27;;;;;;;11.25;8.35;;;24.00;86.00;;;;;;6183137;23;20502;-84
2023/06/19 04:20:53;;;;;;;8.68;7.78;;;24.00;86.00;;;;;;6183285;23;20020;-84
2023/06/19 04:23:19;;;;;;;9.45;8.10;;;24.00;86.00;;;;;;6182570;23;20320;-84
2023/06/19 04:25:44;;;;;;;10.07;8.07;;;24.00;85.90;;;;;;6183007;23;20001;-84
2023/06/19 04:28:10;;;;;;;10.07;7.78;;;24.00;85.90;;;;;;6183502;23;20005;-84
2023/06/19 04:30:39;;;;;;;11.00;8.50;;;24.00;85.80;;;;;;6183386;23;20012;-84
2023/06/19 04:33:06;;;;;;;9.32;8.32;;;24.00;85.70;;;;;;6156930;23;20028;-83
2023/06/19 04:35:32;;;;;;;13.13;8.00;;;24.10;85.70;;;;;;6182784;23;20018;-83
2023/06/19 04:38:00;;;;;;;10.82;8.13;;;24.10;85.70;;;;;;6182609;23;20040;-83
2023/06/19 04:40:27;;;;;;;9.80;7.53;;;24.10;85.80;;;;;;6183391;23;20324;-83
2023/06/19 04:42:53;;;;;;;11.57;8.18;;;24.20;85.80;;;;;;6182908;23;20067;-82
2023/06/19 04:45:19;;;;;;;9.52;8.00;;;24.20;85.50;;;;;;6183833;23;20016;-83
2023/06/19 04:47:45;;;;;;;9.40;7.35;;;24.20;85.30;;;;;;6183157;23;20084;-83
2023/06/19 04:50:11;;;;;;;8.98;7.68;;;24.20;85.20;;;;;;6183286;23;20072;-83
2023/06/19 04:52:37;;;;;;;11.88;8.90;;;24.30;84.90;;;;;;6182507;23;20004;-83
2023/06/19 04:55:07;;;;;;;11.52;7.70;;;24.30;84.80;;;;;;6182931;23;20033;-79
2023/06/19 04:57:32;;;;;;;9.73;8.45;;;24.20;84.80;;;;;;6182791;23;20001;-83
2023/06/19 04:59:58;;;;;;;9.80;8.32;;;24.20;84.80;;;;;;6183133;23;20012;-84
2023/06/19 05:02:24;;;;;;;10.10;9.05;;;24.10;84.80;;;;;;6156574;23;20459;-83
2023/06/19 05:04:49;;;;;;;10.52;8.18;;;24.10;84.80;;;;;;6183366;23;20013;-82
2023/06/19 05:07:17;;;;;;;11.35;9.38;;;24.10;84.90;;;;;;6157300;23;20440;-82
2023/06/19 05:09:43;;;;;;;11.40;8.80;;;24.10;84.80;;;;;;6182689;23;20008;-82
2023/06/19 05:12:11;;;;;;;9.55;8.43;;;24.10;85.00;;;;;;6182860;23;20025;-82
2023/06/19 05:14:36;;;;;;;12.38;8.68;;;24.20;85.00;;;;;;6183341;23;20009;-82
2023/06/19 05:17:02;;;;;;;10.90;9.35;;;24.20;84.80;;;;;;6182987;23;20428;-82
2023/06/19 05:19:27;;;;;;;11.18;8.55;;;24.20;84.60;;;;;;6183853;23;20620;-82
2023/06/19 05:21:53;;;;;;;10.07;8.27;;;24.20;84.50;;;;;;6183378;23;20051;-81
2023/06/19 05:24:19;;;;;;;10.93;8.13;;;24.30;84.60;;;;;;6181382;23;20005;-80
2023/06/19 05:26:44;;;;;;;10.80;8.10;;;24.40;84.90;;;;;;6181467;23;20431;-79
2023/06/19 05:29:11;;;;;;;8.77;7.65;;;24.40;84.80;;;;;;6155335;23;20076;-79
2023/06/19 05:31:36;;;;;;;9.80;7.95;;;24.50;84.60;;;;;;6155442;23;20009;-79
2023/06/19 05:34:02;;;;;;;10.18;7.90;;;24.60;84.50;;;;;;6183281;23;20293;-80
2023/06/19 05:36:28;;;;;;;10.18;8.32;;;24.60;84.40;;;;;;6184071;23;20006;-81
2023/06/19 05:38:53;;;;;;;10.90;7.57;;;24.60;84.40;;;;;;6182601;23;20025;-81
2023/06/19 05:41:19;;;;;;;13.23;8.70;;;24.60;84.10;;;;;;6185013;23;20009;-86
2023/06/19 05:43:45;;;;;;;10.00;8.43;;;24.60;83.90;;;;;;6185002;23;20304;-86
2023/06/19 05:46:11;;;;;;;9.95;8.43;;;24.50;83.80;;;;;;6184917;23;20005;-86
2023/06/19 05:48:37;;;;;;;9.07;7.55;;;24.50;84.00;;;;;;6185293;23;20091;-86
2023/06/19 05:51:03;;;;;;;9.73;7.57;;;24.50;84.30;;;;;;6184640;23;19997;-86
2023/06/19 05:53:28;;;;;;;8.63;7.68;;;24.50;84.50;;;;;;6184164;23;20059;-85
2023/06/19 05:55:54;;;;;;;9.57;7.60;;;24.60;84.60;;;;;;6184997;23;20001;-86
2023/06/19 05:58:21;;;;;;;11.80;9.27;;;24.60;84.30;;;;;;6184770;23;20051;-86
2023/06/19 06:00:47;;;;;;;10.77;7.57;;;24.70;84.10;;;;;;6185310;23;20360;-85
2023/06/19 06:03:13;;;;;;;13.50;8.45;;;24.70;84.10;;;;;;6183098;23;20338;-84
2023/06/19 06:05:39;;;;;;;9.35;8.07;;;24.70;84.00;;;;;;6184822;23;20005;-84
2023/06/19 06:08:05;;;;;;;8.63;7.10;;;24.70;83.80;;;;;;6182853;23;20072;-84
2023/06/19 06:10:30;;;;;;;10.18;7.00;;;24.70;83.80;;;;;;6185077;23;20099;-83
2023/06/19 06:12:56;;;;;;;10.50;7.90;;;24.70;83.80;;;;;;6158658;23;20297;-84
2023/06/19 06:15:22;;;;;;;12.75;7.07;;;24.70;83.70;;;;;;6185061;23;20005;-84
2023/06/19 06:17:47;;;;;;;8.45;7.15;;;24.80;83.80;;;;;;6185047;23;20427;-84
2023/06/19 06:20:13;;;;;;;8.20;6.63;;;24.80;83.70;;;;;;6185110;23;20056;-83
2023/06/19 06:22:42;;;;;;;7.97;5.63;;;24.90;83.40;;;;;;6185348;23;20009;-83
2023/06/19 06:25:10;;;;;;;11.57;7.15;;;25.00;83.40;;;;;;6186456;23;19997;-83
2023/06/19 06:27:35;;;;;;;8.45;6.50;;;25.10;83.30;;;;;;6186564;23;20001;-83
2023/06/19 06:30:01;;;;;;;7.28;5.90;;;25.20;83.00;;;;;;6186795;23;20009;-83
2023/06/19 06:32:28;;;;;;;5.88;5.32;;;25.30;82.70;;;;;;6186310;23;20493;-83
2023/06/19 06:34:54;;;;;;;7.35;5.75;;;25.40;82.50;;;;;;6186720;23;20009;-85
2023/06/19 06:37:22;;;;;;;6.47;4.93;;;25.40;82.00;;;;;;6186046;23;20099;-84
2023/06/19 06:39:49;;;;;;;6.13;5.07;;;25.40;81.90;;;;;;6186557;23;20005;-85
2023/06/19 06:42:15;;;;;;;6.97;5.43;;;25.40;81.80;;;;;;6186594;23;20028;-84
2023/06/19 06:44:41;;;;;;;6.25;4.60;;;25.50;81.60;;;;;;6187174;23;20416;-84
2023/06/19 06:47:07;;;;;;;4.97;4.47;;;25.50;81.60;;;;;;6186704;23;20071;-83
2023/06/19 06:49:32;;;;;;;7.10;5.75;;;25.50;82.10;;;;;;6186839;23;20001;-83
2023/06/19 06:51:58;;;;;;;6.47;4.95;;;25.60;81.50;;;;;;6186888;23;20040;-83
2023/06/19 06:54:24;;;;;;;4.60;4.18;;;25.60;81.50;;;;;;6186702;23;20040;-83
2023/06/19 06:56:49;;;;;;;5.45;4.05;;;25.70;81.60;;;;;;6186595;23;20466;-83
2023/06/19 06:59:15;;;;;;;4.78;3.60;;;25.70;81.40;;;;;;6185838;23;20016;-83
2023/06/19 07:01:42;;;;;;;6.45;4.18;;;25.70;81.40;;;;;;6186040;23;20085;-82
2023/06/19 07:04:07;;;;;;;6.97;4.20;;;25.80;81.10;;;;;;6160637;23;20001;-82
2023/06/19 07:06:33;;;;;;;6.10;3.95;;;25.80;81.10;;;;;;6186974;23;20068;-81
2023/06/19 07:08:59;;;;;;;6.53;4.43;;;25.80;81.30;;;;;;6159793;23;20009;-82
2023/06/19 07:11:24;;;;;;;5.22;4.20;;;25.80;80.70;;;;;;6186317;23;20025;-82
2023/06/19 07:13:50;;;;;;;4.57;3.47;;;25.80;80.30;;;;;;6186756;23;20005;-82
2023/06/19 07:16:15;;;;;;;4.50;4.05;;;25.80;80.40;;;;;;6184592;23;20028;-81
2023/06/19 07:18:41;;;;;;;5.05;3.58;;;25.80;80.80;;;;;;6186185;23;20055;-81
2023/06/19 07:21:16;;;;;;;5.60;3.78;;;25.90;80.90;;;;;;6186128;23;20001;-83
2023/06/19 07:23:44;;;;;;;3.70;3.20;;;26.00;80.70;;;;;;6185881;23;20009;-83
2023/06/19 07:26:10;;;;;;;5.55;3.83;;;26.00;80.20;;;;;;6185162;23;20464;-83
2023/06/19 07:28:38;;;;;;;3.72;3.22;;;26.10;80.10;;;;;;6184442;23;20035;-82
2023/06/19 07:31:04;;;;;;;4.57;3.05;;;26.10;79.90;;;;;;6185007;23;20439;-82
2023/06/19 07:33:30;;;;;;;4.43;2.97;;;26.20;79.60;;;;;;6156949;23;20020;-83
2023/06/19 07:35:56;;;;;;;4.38;2.30;;;26.20;79.20;;;;;;6182723;23;20009;-84
2023/06/19 07:38:22;;;;;;;4.50;2.92;;;26.30;79.10;;;;;;6181823;23;20331;-84
2023/06/19 07:40:48;;;;;;;3.28;2.97;;;26.30;78.40;;;;;;6157038;23;20012;-87
2023/06/19 07:43:13;;;;;;;4.80;3.10;;;26.30;78.20;;;;;;6185094;23;20427;-88
2023/06/19 07:45:39;;;;;;;4.47;2.60;;;26.40;78.10;;;;;;6185268;23;20012;-88
2023/06/19 07:48:05;;;;;;;4.45;3.05;;;26.40;78.20;;;;;;6184490;23;20005;-88
2023/06/19 07:50:31;;;;;;;3.67;2.40;;;26.40;78.10;;;;;;6157746;23;20008;-88
2023/06/19 07:52:57;;;;;;;2.63;2.38;;;26.50;77.90;;;;;;6183919;23;20008;-87
2023/06/19 07:55:23;;;;;;;3.22;2.70;;;26.50;76.70;;;;;;6182868;23;20005;-86
2023/06/19 07:57:49;;;;;;;4.88;3.10;;;26.60;77.10;;;;;;6178950;23;20086;-85
2023/06/19 08:00:15;;;;;;;4.57;3.03;;;26.60;77.10;;;;;;6183572;23;20001;-86
2023/06/19 08:02:42;;;;;;;3.40;2.40;;;26.70;77.50;;;;;;6184738;23;20009;-86
2023/06/19 08:05:09;;;;;;;3.72;2.60;;;26.80;77.90;;;;;;6184839;23;20065;-81
2023/06/19 08:07:35;;;;;;;3.92;2.80;;;26.80;77.70;;;;;;6184337;23;20008;-85
2023/06/19 08:10:03;;;;;;;3.42;3.13;;;26.90;77.40;;;;;;6184543;23;20008;-82
2023/06/19 08:12:29;;;;;;;5.57;3.92;;;26.90;77.00;;;;;;6158625;23;20526;-85
2023/06/19 08:14:55;;;;;;;5.38;3.28;;;26.90;77.50;;;;;;6184203;23;20001;-82
2023/06/19 08:17:20;;;;;;;8.05;3.58;;;26.90;77.50;;;;;;6157280;23;20147;-83
2023/06/19 08:19:46;;;;;;;4.28;3.00;;;27.00;78.40;;;;;;6157308;23;20004;-84
2023/06/19 08:22:12;;;;;;;3.90;3.50;;;27.10;78.70;;;;;;6185696;23;20393;-81
2023/06/19 08:24:39;;;;;;;4.47;3.63;;;27.20;77.90;;;;;;6185727;23;20028;-82
2023/06/19 08:27:05;;;;;;;3.25;2.78;;;27.20;77.50;;;;;;6185863;23;20004;-82
2023/06/19 08:29:31;;;;;;;6.18;3.25;;;27.20;77.40;;;;;;6185662;23;20024;-83
2023/06/19 08:31:57;;;;;;;4.55;3.00;;;27.30;77.50;;;;;;6157558;23;20001;-79
2023/06/19 08:34:23;;;;;;;4.70;3.17;;;27.30;77.20;;;;;;6157559;23;20421;-81
2023/06/19 08:36:48;;;;;;;3.50;2.92;;;27.40;76.90;;;;;;6155606;23;20009;-82
2023/06/19 08:39:14;;;;;;;4.38;2.53;;;27.40;76.40;;;;;;6155814;23;20348;-83
2023/06/19 08:41:41;;;;;;;3.38;3.05;;;27.50;76.40;;;;;;6129697;23;20327;-83
2023/06/19 08:44:07;;;;;;;4.85;2.90;;;27.60;76.20;;;;;;6155671;23;20009;-83
2023/06/19 08:46:34;;;;;;;6.15;3.05;;;27.60;76.20;;;;;;6155636;23;20005;-82
2023/06/19 08:49:00;;;;;;;5.53;3.25;;;27.70;76.50;;;;;;6155707;23;20005;-82
2023/06/19 08:51:32;;;;;;;3.97;2.88;;;27.80;77.00;;;;;;6155720;23;20005;-81
2023/06/19 08:54:03;;;;;;;3.08;2.55;;;27.90;77.20;;;;;;6156146;23;20033;-92
2023/06/19 08:56:33;;;;;;;6.30;2.90;;;28.00;77.60;;;;;;6155779;23;20012;-92
2023/06/19 08:59:12;;;;;;;6.43;3.50;;;28.10;78.20;;;;;;6155068;23;20036;-92
2023/06/19 09:01:38;;;;;;;6.15;3.50;;;28.20;77.80;;;;;;6154184;23;20028;-91
2023/06/19 09:04:11;;;;;;;3.58;3.25;;;28.30;77.90;;;;;;6153649;23;20002;-82
2023/06/19 09:06:52;;;;;;;3.55;3.03;;;28.30;78.10;;;;;;6152641;23;20001;-82
2023/06/19 09:09:20;;;;;;;3.80;3.10;;;28.40;77.80;;;;;;6153504;23;20317;-82
2023/06/19 09:12:06;;;;;;;4.15;3.22;;;28.40;77.70;;;;;;6151952;23;20024;-82
2023/06/19 09:14:37;;;;;;;5.40;3.60;;;28.50;78.20;;;;;;6154869;23;20004;-82
2023/06/19 09:17:05;;;;;;;6.93;3.25;;;28.60;77.50;;;;;;6152999;23;19998;-82
2023/06/19 09:19:34;;;;;;;4.10;3.17;;;28.60;78.00;;;;;;6154394;23;20006;-82
2023/06/19 09:22:08;;;;;;;4.63;3.20;;;28.70;77.80;;;;;;6155257;23;20001;-80
2023/06/19 09:24:38;;;;;;;4.93;3.42;;;28.70;77.50;;;;;;6154560;23;20001;-81
2023/06/19 09:27:17;;;;;;;6.90;3.50;;;28.80;77.20;;;;;;6154579;23;19997;-82
2023/06/19 09:29:45;;;;;;;3.58;2.88;;;28.90;76.90;;;;;;6128674;23;20006;-82
2023/06/19 09:32:29;;;;;;;3.40;2.92;;;29.00;76.80;;;;;;6154803;23;20014;-82
2023/06/19 09:34:58;;;;;;;4.28;3.20;;;29.00;76.20;;;;;;6127746;23;20305;-82
2023/06/19 09:37:30;;;;;;;4.37;2.87;;;29.10;75.80;;;;;;6154326;23;20072;-84
2023/06/19 09:40:13;;;;;;;5.60;3.17;;;29.10;75.40;;;;;;6154683;23;20001;-83
2023/06/19 09:42:43;;;;;;;3.35;3.05;;;29.20;75.10;;;;;;6154854;23;20061;-82
2023/06/19 09:45:11;;;;;;;3.67;3.05;;;29.30;74.60;;;;;;6128801;23;20440;-82
2023/06/19 09:47:38;;;;;;;4.85;3.00;;;29.30;73.90;;;;;;6154607;23;20048;-81
2023/06/19 09:50:06;;;;;;;5.07;3.28;;;29.30;73.40;;;;;;6152580;23;20005;-85
2023/06/19 09:52:32;;;;;;;4.57;2.97;;;29.40;72.70;;;;;;6151266;23;20006;-83
2023/06/19 09:54:57;;;;;;;3.30;2.85;;;29.40;72.70;;;;;;6128786;23;20047;-83
2023/06/19 09:57:24;;;;;;;4.00;2.83;;;29.60;72.90;;;;;;6151923;23;20420;-81
2023/06/19 09:59:59;;;;;;;5.43;3.05;;;29.70;72.80;;;;;;6156811;23;20010;-80
2023/06/19 10:02:27;;;;;;;5.15;2.75;;;29.80;72.30;;;;;;6156327;23;20002;-81
2023/06/19 10:04:55;;;;;;;5.57;3.22;;;29.80;71.40;;;;;;6156155;23;20024;-81
2023/06/19 10:07:34;;;;;;;8.93;3.22;;;29.90;71.40;;;;;;6155024;23;20001;-81
2023/06/19 10:10:06;;;;;;;3.33;2.75;;;29.90;71.00;;;;;;6155924;23;20451;-82
2023/06/19 10:12:42;;;;;;;3.10;2.60;;;30.00;71.10;;;;;;6156814;23;20008;-82
2023/06/19 10:15:19;;;;;;;3.25;2.67;;;30.10;70.40;;;;;;6156475;23;20076;-82
2023/06/19 10:17:52;;;;;;;3.55;2.97;;;30.10;70.30;;;;;;6154394;23;20084;-82
2023/06/19 10:20:25;;;;;;;3.70;3.13;;;30.20;69.70;;;;;;6156502;23;20002;-82
2023/06/19 10:23:10;;;;;;;4.28;2.90;;;30.30;69.60;;;;;;6152122;23;20016;-82
2023/06/19 10:25:43;;;;;;;4.38;3.25;;;30.30;69.30;;;;;;6152926;23;20005;-82
2023/06/19 10:28:23;;;;;;;3.85;2.83;;;30.40;69.30;;;;;;6130092;23;20001;-82
2023/06/19 10:31:03;;;;;;;4.35;3.17;;;30.50;69.20;;;;;;6155724;23;20006;-83
2023/06/19 10:33:34;;;;;;;3.70;3.08;;;30.60;68.70;;;;;;6150161;23;20410;-82
2023/06/19 10:36:16;;;;;;;3.20;2.47;;;30.70;68.20;;;;;;6185320;23;20009;-84
2023/06/19 10:38:47;;;;;;;6.13;3.03;;;30.80;67.80;;;;;;6184839;23;20001;-83
2023/06/19 10:41:21;;;;;;;4.13;3.03;;;30.90;68.00;;;;;;6185806;23;20056;-84
2023/06/19 10:44:00;;;;;;;4.05;3.50;;;31.00;67.90;;;;;;6186160;23;20005;-82
2023/06/19 10:46:32;;;;;;;3.38;2.92;;;31.20;67.50;;;;;;6185964;23;20000;-82
2023/06/19 10:49:04;;;;;;;5.18;3.47;;;31.20;67.90;;;;;;6186426;23;20015;-82
2023/06/19 10:51:36;;;;;;;4.43;3.22;;;31.30;68.30;;;;;;6185901;23;20005;-83
2023/06/19 10:54:02;;;;;;;3.63;3.13;;;31.40;67.60;;;;;;6184183;23;20063;-83
2023/06/19 10:56:28;;;;;;;4.82;3.33;;;31.50;67.20;;;;;;6153935;23;20336;-82
2023/06/19 10:59:13;;;;;;;3.78;3.15;;;31.60;67.00;;;;;;6185091;23;20001;-82
2023/06/19 11:01:47;;;;;;;5.03;3.38;;;31.80;66.90;;;;;;6182317;23;20049;-83
2023/06/19 11:04:15;;;;;;;5.43;3.17;;;31.90;66.70;;;;;;6184082;23;20052;-83
2023/06/19 11:06:43;;;;;;;5.22;3.53;;;32.00;66.30;;;;;;6184740;23;20001;-83
2023/06/19 11:09:11;;;;;;;9.57;4.03;;;32.20;66.10;;;;;;6185405;23;20006;-84
2023/06/19 11:11:47;;;;;;;4.22;3.03;;;32.30;65.40;;;;;;6159307;23;20006;-83
2023/06/19 11:14:15;;;;;;;6.05;3.15;;;32.40;65.40;;;;;;6185513;23;20001;-83
2023/06/19 11:16:43;;;;;;;5.28;3.08;;;32.50;65.60;;;;;;6185270;23;20012;-83
2023/06/19 11:19:14;;;;;;;4.03;2.97;;;32.70;65.80;;;;;;6185117;23;20006;-83
2023/06/19 11:21:39;;;;;;;6.28;3.30;;;32.90;65.70;;;;;;6186391;23;20005;-83
2023/06/19 11:24:10;;;;;;;5.10;3.60;;;33.10;65.10;;;;;;6185819;23;20005;-83
2023/06/19 11:26:49;;;;;;;9.27;3.83;;;33.30;64.80;;;;;;6185529;23;20025;-83
2023/06/19 11:29:19;;;;;;;6.90;3.53;;;33.40;64.10;;;;;;6185437;23;20057;-83
2023/06/19 11:31:46;;;;;;;3.53;3.03;;;33.70;64.50;;;;;;6183966;23;20017;-83
2023/06/19 11:34:12;;;;;;;3.33;2.97;;;34.00;64.00;;;;;;6184782;23;20077;-83
2023/06/19 11:36:39;;;;;;;6.55;3.38;;;34.40;63.00;;;;;;6184199;23;20008;-83
2023/06/19 11:39:09;;;;;;;8.43;4.10;;;34.70;61.60;;;;;;6184865;23;20001;-82
2023/06/19 11:41:34;;;;;;;6.85;3.63;;;35.10;60.70;;;;;;6185245;23;20001;-84
2023/06/19 11:44:05;;;;;;;5.25;2.95;;;35.50;60.50;;;;;;6184793;23;20001;-84
2023/06/19 11:46:32;;;;;;;6.47;4.00;;;35.90;60.40;;;;;;6185641;23;20001;-84
2023/06/19 11:49:12;;;;;;;5.97;4.07;;;36.20;59.30;;;;;;6185077;23;20004;-84
2023/06/19 11:51:38;;;;;;;3.75;2.90;;;36.50;58.20;;;;;;6184925;23;20005;-83
2023/06/19 11:54:08;;;;;;;5.55;3.30;;;36.70;58.10;;;;;;6185538;23;20083;-84
2023/06/19 11:56:39;;;;;;;4.22;2.90;;;36.80;57.30;;;;;;6184849;23;20016;-85
2023/06/19 11:59:05;;;;;;;5.32;3.30;;;36.50;56.10;;;;;;6184936;23;20001;-84
2023/06/19 12:01:32;;;;;;;3.55;3.25;;;36.20;56.30;;;;;;6184726;23;20005;-85
2023/06/19 12:03:59;;;;;;;4.30;3.28;;;35.90;57.50;;;;;;6184552;23;20941;-85
2023/06/19 12:06:24;;;;;;;5.55;4.05;;;35.80;58.00;;;;;;6184364;23;20049;-85
2023/06/19 12:08:50;;;;;;;6.00;3.50;;;35.80;58.20;;;;;;6185060;23;20005;-87
2023/06/19 12:11:16;;;;;;;4.10;3.22;;;35.90;58.60;;;;;;6184955;23;20336;-85
2023/06/19 12:13:42;;;;;;;8.02;4.40;;;36.10;58.10;;;;;;6184800;23;20005;-85
2023/06/19 12:16:11;;;;;;;4.90;4.03;;;36.30;57.50;;;;;;6185480;23;20417;-86
2023/06/19 12:18:37;;;;;;;;;;;36.50;57.80;;;;;;6185924;23;20309;-86
2023/06/19 12:21:04;;;;;;;4.53;3.85;;;36.80;57.40;;;;;;6185272;23;19955;-86
2023/06/19 12:23:29;;;;;;;4.85;3.10;;;37.00;56.90;;;;;;6185263;23;20004;-86
2023/06/19 12:25:56;;;;;;;6.38;3.80;;;37.20;56.40;;;;;;6185142;23;20060;-85
2023/06/19 12:28:21;;;;;;;6.28;3.90;;;37.40;56.40;;;;;;6158473;23;20019;-84
2023/06/19 12:30:51;;;;;;;3.97;3.53;;;37.50;55.70;;;;;;6158986;23;20007;-86
2023/06/19 12:33:22;;;;;;;;;;;37.70;54.90;;;;;;6185009;23;20017;-84
2023/06/19 12:35:50;;;;;;;6.57;3.53;;;37.80;54.30;;;;;;6159009;23;19907;-83
2023/06/19 12:38:17;;;;;;;3.88;3.38;;;37.90;54.90;;;;;;6187539;23;20034;-86
2023/06/19 12:40:43;;;;;;;8.80;3.95;;;38.00;54.60;;;;;;6186755;23;20060;-86
2023/06/19 12:43:09;;;;;;;4.53;3.50;;;38.20;53.20;;;;;;6161263;23;20415;-86
2023/06/19 12:45:35;;;;;;;4.30;3.67;;;38.20;52.60;;;;;;6190095;23;19997;-84
2023/06/19 12:48:00;;;;;;;4.13;3.72;;;38.30;52.20;;;;;;6186251;23;20297;-83